Manzanola, Colorado
Current Conditions -  °F | °C
As of 4:53 AM on Saturday 20 Dec 2014 (Local Time) from KLHX Reporting Station
Clear Clear  
Wind Chill: 12°   Ceiling: Unl
Heat Index: 23°   Visibility: 10mi
Dew Point: 20°   Wind: 10mph
Humidity: 88%   Direction: 270°W
Pressure: 30.05"   Gusts: NA
Location:  38.11°N, 103.87°W
Report Text: KLHX 201153Z AUTO 27009KT 10SM CLR M05/M07 A3005 RMK AO2 SLP190 T10501067 11017 21056 53005
Loading
Personal Weather Stations






























Interactive Weather Map New forecast layout! Learn more

10-Day Weather Forecast

Advertisements
Track Severe Weather on mobile